createdAt,value
2018-05-31T00:01:58.181Z,87.10
2018-05-31T00:04:26.567Z,87.70
2018-05-31T00:06:54.178Z,87.60
2018-05-31T00:09:21.780Z,88.10
2018-05-31T00:11:50.179Z,88.10
2018-05-31T00:14:17.817Z,88.00
2018-05-31T00:16:46.184Z,87.70
2018-05-31T00:19:14.570Z,87.60
2018-05-31T00:21:42.188Z,87.60
2018-05-31T00:24:09.940Z,87.80
2018-05-31T00:26:37.610Z,88.10
2018-05-31T00:29:05.262Z,88.20
2018-05-31T00:31:32.900Z,88.30
2018-05-31T00:34:00.518Z,87.90
2018-05-31T00:36:28.158Z,87.70
2018-05-31T00:38:55.799Z,87.90
2018-05-31T00:41:23.415Z,87.90
2018-05-31T00:43:51.070Z,88.00
2018-05-31T00:46:18.734Z,88.10
2018-05-31T00:48:47.158Z,87.90
2018-05-31T00:51:14.770Z,87.80
2018-05-31T00:53:42.409Z,87.40
2018-05-31T00:56:16.981Z,87.90
2018-05-31T00:58:44.691Z,87.70
2018-05-31T01:01:12.319Z,88.00
2018-05-31T01:03:39.929Z,88.30
2018-05-31T01:06:07.543Z,88.40
2018-05-31T01:08:35.170Z,88.00
2018-05-31T01:11:03.584Z,88.30
2018-05-31T01:13:31.236Z,88.20
2018-05-31T01:15:58.889Z,88.30
2018-05-31T01:18:27.282Z,87.70
2018-05-31T01:20:54.939Z,87.70
2018-05-31T01:23:22.571Z,87.70
2018-05-31T01:25:50.974Z,88.10
2018-05-31T01:28:18.570Z,88.10
2018-05-31T01:30:46.196Z,88.30
2018-05-31T01:33:13.819Z,88.60
2018-05-31T01:35:42.214Z,88.80
2018-05-31T01:38:22.549Z,88.40
2018-05-31T01:40:50.189Z,88.40
2018-05-31T01:43:17.831Z,88.60
2018-05-31T01:45:45.460Z,87.80
2018-05-31T01:48:13.089Z,88.00
2018-05-31T01:50:41.548Z,88.70
2018-05-31T01:53:09.167Z,88.70
2018-05-31T01:55:36.788Z,88.50
2018-05-31T01:58:04.408Z,88.50
2018-05-31T02:00:32.048Z,89.10
2018-05-31T02:02:59.712Z,89.10
2018-05-31T02:05:27.332Z,89.30
2018-05-31T02:07:54.987Z,89.30
2018-05-31T02:10:23.408Z,89.10
2018-05-31T02:12:51.037Z,88.90
2018-05-31T02:15:18.701Z,89.30
2018-05-31T02:17:47.095Z,89.10
2018-05-31T02:20:15.471Z,89.30
2018-05-31T02:22:43.174Z,89.20
2018-05-31T02:25:10.791Z,89.70
2018-05-31T02:27:39.209Z,89.70
2018-05-31T02:30:06.832Z,89.60
2018-05-31T02:32:34.488Z,89.30
2018-05-31T02:35:02.132Z,89.40
2018-05-31T02:37:29.766Z,89.50
2018-05-31T02:39:58.189Z,90.00
2018-05-31T02:42:26.586Z,89.90
2018-05-31T02:44:54.209Z,89.90
2018-05-31T02:47:21.835Z,90.20
2018-05-31T02:49:49.607Z,90.30
2018-05-31T02:52:17.256Z,90.50
2018-05-31T02:54:44.869Z,90.50
2018-05-31T02:57:13.249Z,90.60
2018-05-31T02:59:41.666Z,90.60
2018-05-31T03:02:09.294Z,90.60
2018-05-31T03:04:36.946Z,90.90
2018-05-31T03:07:05.373Z,91.60
2018-05-31T03:09:32.976Z,91.60
2018-05-31T03:12:00.597Z,91.80
2018-05-31T03:14:29.884Z,91.80
2018-05-31T03:16:58.739Z,91.70
2018-05-31T03:19:26.479Z,91.50
2018-05-31T03:21:54.869Z,91.70
2018-05-31T03:24:23.287Z,91.50
2018-05-31T03:26:50.929Z,91.40
2018-05-31T03:29:18.792Z,91.50
2018-05-31T03:31:46.602Z,91.50
2018-05-31T03:34:14.555Z,91.40
2018-05-31T03:36:42.389Z,91.40
2018-05-31T03:39:10.235Z,91.60
2018-05-31T03:41:38.789Z,91.90
2018-05-31T03:44:06.661Z,91.90
2018-05-31T03:46:34.430Z,92.10
2018-05-31T03:49:02.239Z,92.30
2018-05-31T03:51:30.080Z,92.30
2018-05-31T03:53:58.639Z,91.80
2018-05-31T03:56:26.388Z,91.80
2018-05-31T03:58:54.225Z,91.80
2018-05-31T04:01:21.858Z,92.00
2018-05-31T04:03:49.502Z,91.90
2018-05-31T04:06:17.160Z,91.80
2018-05-31T04:08:44.759Z,91.90
2018-05-31T04:11:12.378Z,91.90
2018-05-31T04:13:39.999Z,91.90
2018-05-31T04:16:07.653Z,91.90
2018-05-31T04:18:35.344Z,91.90
2018-05-31T04:21:02.947Z,92.00
2018-05-31T04:23:31.348Z,92.10
2018-05-31T04:25:58.963Z,92.10
2018-05-31T04:28:27.343Z,92.00
2018-05-31T04:30:55.827Z,92.10
2018-05-31T04:33:23.470Z,92.10
2018-05-31T04:35:51.073Z,92.10
2018-05-31T04:38:19.453Z,92.30
2018-05-31T04:40:47.126Z,92.30
2018-05-31T04:43:14.784Z,92.40
2018-05-31T04:45:42.436Z,92.40
2018-05-31T04:48:10.126Z,92.60
2018-05-31T04:50:37.769Z,92.50
2018-05-31T04:53:05.410Z,92.60
2018-05-31T04:55:33.076Z,92.60
2018-05-31T04:58:01.459Z,92.30
2018-05-31T05:00:29.832Z,92.30
2018-05-31T05:02:57.660Z,92.30
2018-05-31T05:05:25.420Z,92.40
2018-05-31T05:07:54.049Z,92.40
2018-05-31T05:10:21.963Z,92.40
2018-05-31T05:12:49.801Z,92.50
2018-05-31T05:15:17.641Z,92.40
2018-05-31T05:17:45.515Z,92.40
2018-05-31T05:20:13.352Z,92.50
2018-05-31T05:22:41.245Z,92.60
2018-05-31T05:25:09.159Z,92.60
2018-05-31T05:27:36.984Z,92.70
2018-05-31T05:30:04.875Z,92.60
2018-05-31T05:32:32.844Z,92.60
2018-05-31T05:35:00.642Z,92.90
2018-05-31T05:37:29.160Z,92.20
2018-05-31T05:39:57.079Z,92.20
2018-05-31T05:42:24.966Z,92.30
2018-05-31T05:44:53.594Z,92.30
2018-05-31T05:47:21.427Z,92.30
2018-05-31T05:49:49.213Z,92.10
2018-05-31T05:52:18.419Z,91.60
2018-05-31T05:54:46.295Z,91.00
2018-05-31T05:57:14.189Z,90.60
2018-05-31T05:59:42.042Z,90.50
2018-05-31T06:02:10.649Z,89.50
2018-05-31T06:04:39.268Z,90.00
2018-05-31T06:07:07.064Z,90.00
2018-05-31T06:09:34.882Z,88.90
2018-05-31T06:12:02.721Z,88.10
2018-05-31T06:14:30.535Z,89.20
2018-05-31T06:16:58.361Z,88.90
2018-05-31T06:19:26.020Z,89.40
2018-05-31T06:21:53.661Z,89.40
2018-05-31T06:24:21.610Z,88.60
2018-05-31T06:26:49.290Z,89.00
2018-05-31T06:29:16.933Z,89.90
2018-05-31T06:31:44.593Z,88.50
2018-05-31T06:34:12.225Z,86.70
2018-05-31T06:36:39.867Z,86.00
2018-05-31T06:39:10.511Z,85.70
2018-05-31T06:41:38.296Z,85.60
2018-05-31T06:44:06.045Z,85.30
2018-05-31T06:46:34.450Z,86.40
2018-05-31T06:49:03.216Z,86.40
2018-05-31T06:51:31.064Z,86.20
2018-05-31T06:53:58.825Z,87.50
2018-05-31T06:56:27.225Z,87.20
2018-05-31T06:58:54.852Z,87.20
2018-05-31T07:01:22.441Z,86.30
2018-05-31T07:03:50.065Z,85.10
2018-05-31T07:06:17.693Z,84.40
2018-05-31T07:08:45.327Z,83.20
2018-05-31T07:11:12.949Z,82.00
2018-05-31T07:13:40.529Z,82.30
2018-05-31T07:16:08.887Z,80.10
2018-05-31T07:18:36.521Z,80.10
2018-05-31T07:21:04.175Z,79.40
2018-05-31T07:23:31.806Z,78.90
2018-05-31T07:25:59.378Z,76.90
2018-05-31T07:28:26.960Z,78.10
2018-05-31T07:30:54.568Z,78.70
2018-05-31T07:33:23.003Z,79.90
2018-05-31T07:35:50.626Z,79.90
2018-05-31T07:38:18.231Z,79.30
2018-05-31T07:40:45.850Z,78.10
2018-05-31T07:43:13.543Z,79.80
2018-05-31T07:45:41.183Z,77.90
2018-05-31T07:48:08.780Z,78.00
2018-05-31T07:50:40.403Z,79.20
2018-05-31T07:53:08.043Z,78.60
2018-05-31T07:55:35.637Z,77.10
2018-05-31T07:58:04.065Z,77.20
2018-05-31T08:00:31.859Z,77.20
2018-05-31T08:02:59.478Z,76.40
2018-05-31T08:05:28.170Z,75.90
2018-05-31T08:07:56.620Z,75.40
2018-05-31T08:10:24.342Z,75.30
2018-05-31T08:12:53.260Z,76.00
2018-05-31T08:15:20.868Z,76.30
2018-05-31T08:17:50.252Z,75.80
2018-05-31T08:20:18.668Z,74.30
2018-05-31T08:22:46.485Z,74.40
2018-05-31T08:25:14.136Z,73.80
2018-05-31T08:27:41.759Z,74.40
2018-05-31T08:30:09.401Z,76.20
2018-05-31T08:32:37.047Z,73.10
2018-05-31T08:35:04.686Z,71.70
2018-05-31T08:37:32.300Z,71.00
2018-05-31T08:39:59.970Z,72.60
2018-05-31T08:42:27.582Z,70.00
2018-05-31T08:44:55.207Z,70.40
2018-05-31T08:47:22.820Z,70.50
2018-05-31T08:49:51.218Z,69.30
2018-05-31T08:52:18.815Z,69.30
2018-05-31T08:54:46.427Z,70.90
2018-05-31T08:57:14.028Z,71.30
2018-05-31T08:59:41.651Z,70.90
2018-05-31T09:02:09.270Z,69.60
2018-05-31T09:04:36.879Z,69.30
2018-05-31T09:07:04.490Z,68.10
2018-05-31T09:09:32.154Z,68.30
2018-05-31T09:11:59.800Z,68.60
2018-05-31T09:14:27.409Z,68.30
2018-05-31T09:16:55.011Z,70.30
2018-05-31T09:19:22.611Z,67.00
2018-05-31T15:20:21.576Z,55.80
2018-05-31T15:22:51.605Z,56.00
